Time;durP1;ratioP1;P1;durP2;ratioP2;P2;SDS_P1;SDS_P2;PMS_P1;PMS_P2;Temp;Humidity;BMP_temperature;BMP_pressure;BME280_temperature;BME280_humidity;BME280_pressure;Samples;Min_cycle;Max_cycle;Signal;HPM_P1;HPM_P2
2022/12/09 00:00:13;;;;;;;13.57;6.27;;;-2.50;99.90;;;;;;4179974;28;20415;-66
2022/12/09 00:02:13;;;;;;;9.43;5.33;;;-2.60;99.50;;;;;;4179422;28;20195;-66
2022/12/09 00:04:14;;;;;;;11.80;5.40;;;-2.60;99.10;;;;;;4178845;28;20428;-66
2022/12/09 00:06:21;;;;;;;9.73;5.53;;;-2.70;99.10;;;;;;4179717;28;20194;-66
2022/12/09 00:08:22;;;;;;;11.70;5.90;;;-2.90;99.30;;;;;;4180173;28;20189;-66
2022/12/09 00:10:23;;;;;;;9.20;5.43;;;-3.00;99.80;;;;;;4178666;28;20434;-67
2022/12/09 00:12:23;;;;;;;12.00;5.57;;;-3.20;99.90;;;;;;4179490;28;20269;-66
2022/12/09 00:14:24;;;;;;;10.93;6.27;;;-3.20;99.90;;;;;;4180126;28;20191;-66
2022/12/09 00:16:25;;;;;;;9.77;5.70;;;-3.30;99.90;;;;;;4179998;28;20189;-66
2022/12/09 00:18:26;;;;;;;13.60;6.57;;;-3.30;99.90;;;;;;4180166;28;20204;-66
2022/12/09 00:20:26;;;;;;;11.60;6.27;;;-3.30;99.90;;;;;;4180008;28;20207;-67
2022/12/09 00:22:28;;;;;;;10.97;5.97;;;-3.20;99.90;;;;;;4179748;28;20225;-67
2022/12/09 00:24:28;;;;;;;12.70;5.80;;;-3.20;99.90;;;;;;4196337;28;20221;-66
2022/12/09 00:26:30;;;;;;;11.13;5.93;;;-3.10;99.90;;;;;;4195011;28;20818;-66
2022/12/09 00:28:31;;;;;;;9.67;6.03;;;-3.10;99.90;;;;;;4196270;28;20257;-66
2022/12/09 00:30:32;;;;;;;8.37;5.07;;;-3.00;99.90;;;;;;4196208;28;20915;-66
2022/12/09 00:32:32;;;;;;;10.80;5.67;;;-2.90;99.90;;;;;;4195279;28;20207;-66
2022/12/09 00:34:33;;;;;;;9.40;4.80;;;-2.70;99.90;;;;;;4196403;28;20278;-66
2022/12/09 00:36:34;;;;;;;10.47;5.90;;;-2.60;99.90;;;;;;4196084;28;20225;-66
2022/12/09 00:38:35;;;;;;;9.00;5.80;;;-2.60;99.90;;;;;;4194686;28;20185;-66
2022/12/09 00:40:36;;;;;;;8.80;5.43;;;-2.50;99.90;;;;;;4194717;28;20425;-66
2022/12/09 00:42:37;;;;;;;9.63;5.93;;;-2.50;99.90;;;;;;4195152;28;20525;-66
2022/12/09 00:44:37;;;;;;;8.83;5.57;;;-2.40;99.90;;;;;;4196017;28;20183;-66
2022/12/09 00:46:38;;;;;;;9.93;5.60;;;-2.40;99.90;;;;;;4195914;28;20225;-66
2022/12/09 00:48:40;;;;;;;8.03;5.07;;;-2.30;99.90;;;;;;4194675;28;20250;-66
2022/12/09 00:50:40;;;;;;;9.77;5.83;;;-2.30;99.90;;;;;;4195856;28;20570;-66
2022/12/09 00:52:41;;;;;;;9.00;5.47;;;-2.40;99.90;;;;;;4194983;28;20465;-67
2022/12/09 00:54:42;;;;;;;7.90;5.20;;;-2.30;99.90;;;;;;4196798;28;20186;-66
2022/12/09 00:56:42;;;;;;;9.00;5.40;;;-2.30;99.90;;;;;;4196031;28;20587;-67
2022/12/09 00:58:43;;;;;;;9.60;5.93;;;-2.20;99.90;;;;;;4195892;28;20585;-66
2022/12/09 01:00:44;;;;;;;10.27;5.53;;;-2.20;99.90;;;;;;4195982;28;20182;-67
2022/12/09 01:02:45;;;;;;;12.67;7.40;;;-2.10;99.60;;;;;;4193849;28;20208;-66
2022/12/09 01:04:49;;;;;;;12.47;6.93;;;-2.10;99.10;;;;;;4195740;28;20182;-66
2022/12/09 01:06:50;;;;;;;12.57;7.23;;;-2.20;99.20;;;;;;4194594;28;20183;-67
2022/12/09 01:08:52;;;;;;;12.20;6.30;;;-2.30;99.40;;;;;;4196191;28;20439;-66
2022/12/09 01:10:53;;;;;;;11.03;6.37;;;-2.30;99.60;;;;;;4194180;28;20524;-66
2022/12/09 01:12:53;;;;;;;10.80;6.10;;;-2.40;99.90;;;;;;4195203;28;21085;-66
2022/12/09 01:14:54;;;;;;;12.10;6.30;;;-2.40;99.90;;;;;;4195489;28;20178;-66
2022/12/09 01:16:55;;;;;;;10.60;6.47;;;-2.40;99.60;;;;;;4193530;28;20184;-66
2022/12/09 01:18:59;;;;;;;13.73;7.60;;;-2.50;99.30;;;;;;4195480;28;20196;-66
2022/12/09 01:20:59;;;;;;;10.50;7.07;;;-2.50;99.10;;;;;;4195307;28;20266;-66
2022/12/09 01:23:01;;;;;;;12.37;7.73;;;-2.60;98.90;;;;;;4194759;28;21200;-67
2022/12/09 01:25:02;;;;;;;12.63;7.33;;;-2.70;98.90;;;;;;4195439;28;20218;-67
2022/12/09 01:27:03;;;;;;;11.87;6.60;;;-2.90;98.90;;;;;;4194073;28;20518;-68
2022/12/09 01:29:04;;;;;;;12.63;7.40;;;-3.00;98.70;;;;;;4195420;28;20432;-68
2022/12/09 01:31:11;;;;;;;11.83;6.00;;;-3.00;98.90;;;;;;4193759;28;20184;-68
2022/12/09 01:33:12;;;;;;;10.43;6.57;;;-3.10;99.00;;;;;;4193264;28;20294;-65
2022/12/09 01:35:13;;;;;;;9.67;6.63;;;-3.20;99.90;;;;;;4195253;28;20456;-68
2022/12/09 01:37:13;;;;;;;8.53;5.50;;;-3.20;99.90;;;;;;4195277;28;20180;-68
2022/12/09 01:39:15;;;;;;;11.80;5.73;;;-3.30;99.90;;;;;;4191850;28;20185;-66
2022/12/09 01:41:17;;;;;;;11.73;5.73;;;-3.40;99.90;;;;;;4180760;28;20190;-66
2022/12/09 01:43:19;;;;;;;10.27;5.40;;;-3.40;99.90;;;;;;4176672;28;20517;-66
2022/12/09 01:45:20;;;;;;;9.13;5.13;;;-3.40;99.90;;;;;;4177154;28;20432;-66
2022/12/09 01:47:22;;;;;;;12.07;5.93;;;-3.40;99.90;;;;;;4178355;28;20439;-66
2022/12/09 01:49:33;;;;;;;7.63;5.23;;;-3.40;99.90;;;;;;4177120;28;20942;-66
2022/12/09 01:51:35;;;;;;;9.07;5.50;;;-3.50;99.90;;;;;;4178486;28;21220;-66
2022/12/09 01:53:40;;;;;;;10.20;5.77;;;-3.50;99.90;;;;;;4177975;28;20527;-66
2022/12/09 01:55:41;;;;;;;11.27;5.70;;;-3.40;99.90;;;;;;4178726;28;20794;-66
2022/12/09 01:57:43;;;;;;;9.23;5.63;;;-3.40;99.90;;;;;;4177001;28;20498;-66
2022/12/09 01:59:44;;;;;;;7.73;5.00;;;-3.40;99.90;;;;;;4177059;28;20220;-66
2022/12/09 02:01:49;;;;;;;9.03;5.50;;;-3.40;99.90;;;;;;4177085;28;20891;-66
2022/12/09 02:03:50;;;;;;;12.40;6.33;;;-3.30;99.90;;;;;;4176521;28;20437;-69
2022/12/09 02:05:50;;;;;;;13.20;6.93;;;-3.30;99.90;;;;;;4177061;28;20810;-66
2022/12/09 02:07:51;;;;;;;10.97;6.80;;;-3.40;99.90;;;;;;4178188;28;20255;-66
2022/12/09 02:09:52;;;;;;;13.60;6.40;;;-3.40;99.90;;;;;;4178280;28;20617;-66
2022/12/09 02:12:32;;;;;;;10.53;5.90;;;-3.50;99.90;;;;;;4176940;28;20230;-67
2022/12/09 02:14:47;;;;;;;8.47;5.63;;;-3.40;99.90;;;;;;4176977;28;20181;-66
2022/12/09 02:17:18;;;;;;;7.97;5.20;;;-3.40;99.90;;;;;;4177126;28;20412;-66
2022/12/09 02:20:00;;;;;;;9.27;5.50;;;-3.50;99.90;;;;;;4178381;28;20423;-66
2022/12/09 02:22:01;;;;;;;9.77;5.93;;;-3.40;99.90;;;;;;4178452;28;20923;-67
2022/12/09 02:24:45;;;;;;;12.03;6.63;;;-3.30;99.90;;;;;;4177556;28;20440;-67
2022/12/09 02:27:14;;;;;;;10.43;5.53;;;-3.30;99.90;;;;;;4177032;28;20183;-67
2022/12/09 02:29:51;;;;;;;8.77;5.33;;;-3.20;99.90;;;;;;4179278;28;20942;-67
2022/12/09 02:32:36;;;;;;;11.33;5.53;;;-3.10;99.90;;;;;;4196410;28;20432;-67
2022/12/09 02:35:05;;;;;;;8.93;5.57;;;-2.90;99.90;;;;;;4197985;28;21009;-67
2022/12/09 02:37:26;;;;;;;7.40;4.97;;;-2.80;99.90;;;;;;4197861;28;20440;-67
2022/12/09 02:40:05;;;;;;;8.93;4.97;;;-2.70;99.90;;;;;;4196547;28;20432;-67
2022/12/09 02:42:08;;;;;;;11.90;5.87;;;-2.60;99.90;;;;;;4146412;28;20976;-67
2022/12/09 02:44:14;;;;;;;11.07;6.13;;;-2.50;99.80;;;;;;4196375;28;20459;-67
2022/12/09 02:46:19;;;;;;;8.07;5.73;;;-2.50;99.40;;;;;;4196458;28;20433;-67
2022/12/09 02:48:33;;;;;;;10.33;6.23;;;-2.50;99.90;;;;;;4196602;28;20429;-67
2022/12/09 02:50:36;;;;;;;9.97;5.53;;;-2.50;99.90;;;;;;4196445;28;20440;-67
2022/12/09 02:52:37;;;;;;;7.87;5.13;;;-2.50;99.90;;;;;;4196394;28;20494;-67
2022/12/09 02:54:38;;;;;;;9.93;5.57;;;-2.50;99.90;;;;;;4199107;28;20508;-67
2022/12/09 02:56:45;;;;;;;8.63;5.00;;;-2.40;99.90;;;;;;4196786;28;20222;-66
2022/12/09 02:58:47;;;;;;;10.33;6.17;;;-2.30;99.90;;;;;;4196590;28;20421;-66
2022/12/09 03:00:50;;;;;;;9.40;5.80;;;-2.30;99.40;;;;;;4196520;28;20425;-66
2022/12/09 03:02:56;;;;;;;10.00;6.67;;;-2.30;99.70;;;;;;4197179;28;21166;-67
2022/12/09 03:05:20;;;;;;;9.10;5.10;;;-2.30;99.80;;;;;;4196778;28;21005;-67
2022/12/09 03:07:30;;;;;;;9.57;5.57;;;-2.30;99.80;;;;;;4196529;28;20422;-66
2022/12/09 03:09:35;;;;;;;9.97;5.90;;;-2.10;99.70;;;;;;4196626;28;20432;-67
2022/12/09 03:11:37;;;;;;;10.60;6.00;;;-2.10;99.40;;;;;;4196395;28;20489;-67
2022/12/09 03:14:10;;;;;;;8.67;5.53;;;-2.10;99.80;;;;;;4195884;28;20554;-67
2022/12/09 03:16:55;;;;;;;9.20;5.47;;;-2.00;99.50;;;;;;4194114;28;20448;-66
2022/12/09 03:19:10;;;;;;;9.17;5.20;;;-1.90;99.50;;;;;;4180977;28;20417;-67
2022/12/09 03:21:15;;;;;;;7.13;4.97;;;-1.80;99.80;;;;;;4179436;28;20454;-66
2022/12/09 03:23:18;;;;;;;7.70;4.77;;;-1.90;99.90;;;;;;4180166;28;20441;-67
2022/12/09 03:25:25;;;;;;;11.60;5.17;;;-1.80;99.90;;;;;;4179461;28;20804;-67
2022/12/09 03:27:55;;;;;;;11.90;5.97;;;-1.80;99.90;;;;;;4179364;28;20430;-67
2022/12/09 03:29:58;;;;;;;8.57;4.70;;;-1.70;99.90;;;;;;4179189;28;20440;-67
2022/12/09 03:31:58;;;;;;;8.93;5.13;;;-1.60;99.90;;;;;;4194239;28;20456;-67
2022/12/09 03:34:03;;;;;;;10.90;4.80;;;-1.50;99.80;;;;;;4196540;28;20488;-67
2022/12/09 03:36:08;;;;;;;8.53;5.03;;;-1.50;99.60;;;;;;4197299;28;20183;-67
2022/12/09 03:38:13;;;;;;;8.13;4.97;;;-1.50;99.90;;;;;;4195502;28;20417;-67
2022/12/09 03:40:27;;;;;;;11.40;5.80;;;-1.50;99.80;;;;;;4195016;28;20432;-67
2022/12/09 03:42:37;;;;;;;9.37;5.33;;;-1.40;99.40;;;;;;4196243;28;20504;-66
2022/12/09 03:44:51;;;;;;;9.17;5.90;;;-1.40;99.60;;;;;;4195659;28;20425;-66
2022/12/09 03:46:52;;;;;;;9.47;5.63;;;-1.50;98.90;;;;;;4195112;28;20430;-67
2022/12/09 03:48:52;;;;;;;8.90;5.40;;;-1.50;99.40;;;;;;4196624;28;20428;-66
2022/12/09 03:51:00;;;;;;;11.03;5.60;;;-1.50;98.90;;;;;;4197242;28;20179;-66
2022/12/09 03:53:12;;;;;;;12.87;6.20;;;-1.50;99.10;;;;;;4178395;28;20601;-67
2022/12/09 03:55:37;;;;;;;8.47;5.60;;;-1.50;99.40;;;;;;4197117;28;20505;-66
2022/12/09 03:57:41;;;;;;;11.13;5.57;;;-1.60;99.60;;;;;;4195815;28;20830;-66
2022/12/09 03:59:49;;;;;;;10.13;5.80;;;-1.60;99.80;;;;;;4195576;28;20418;-66
2022/12/09 04:01:50;;;;;;;10.70;5.63;;;-1.50;99.70;;;;;;4195547;28;20485;-66
2022/12/09 04:03:54;;;;;;;8.53;5.43;;;-1.50;99.50;;;;;;4195066;28;20444;-67
2022/12/09 04:05:55;;;;;;;10.40;5.00;;;-1.40;99.70;;;;;;4196654;28;21112;-67
2022/12/09 04:07:56;;;;;;;12.07;5.73;;;-1.30;99.40;;;;;;4196625;28;20475;-66
2022/12/09 04:09:56;;;;;;;8.97;5.50;;;-1.30;99.50;;;;;;4195243;28;20179;-66
2022/12/09 04:11:57;;;;;;;10.93;5.77;;;-1.30;99.80;;;;;;4196180;28;20206;-66
2022/12/09 04:13:58;;;;;;;9.70;6.27;;;-1.30;99.90;;;;;;4195750;28;20209;-66
2022/12/09 04:15:58;;;;;;;9.17;4.90;;;-1.30;99.90;;;;;;4195109;28;20200;-66
2022/12/09 04:17:59;;;;;;;8.33;4.77;;;-1.30;99.90;;;;;;4196396;28;20184;-67
2022/12/09 04:20:00;;;;;;;8.73;5.00;;;-1.30;99.90;;;;;;4196393;28;20179;-66
2022/12/09 04:22:01;;;;;;;7.07;4.80;;;-1.30;99.90;;;;;;4196212;28;20190;-66
2022/12/09 04:24:01;;;;;;;9.50;5.47;;;-1.20;99.90;;;;;;4195566;28;20664;-67
2022/12/09 04:26:03;;;;;;;5.80;4.00;;;-1.10;99.90;;;;;;4196259;28;20540;-67
2022/12/09 04:28:04;;;;;;;7.87;4.67;;;-1.10;99.90;;;;;;4194872;28;20650;-67
2022/12/09 04:30:05;;;;;;;8.07;4.93;;;-1.00;99.90;;;;;;4195978;28;20434;-67
2022/12/09 04:32:06;;;;;;;8.40;5.17;;;-1.10;99.90;;;;;;4193863;28;20749;-67
2022/12/09 04:34:07;;;;;;;8.73;5.50;;;-1.00;99.90;;;;;;4195888;28;20447;-67
2022/12/09 04:36:12;;;;;;;8.53;4.97;;;-1.00;99.90;;;;;;4196146;28;20237;-66
2022/12/09 04:38:13;;;;;;;7.40;4.33;;;-0.90;99.90;;;;;;4196112;28;20181;-67
2022/12/09 04:40:14;;;;;;;8.70;4.23;;;-1.00;99.90;;;;;;4194871;28;20485;-67
2022/12/09 04:42:14;;;;;;;10.13;5.70;;;-0.90;99.90;;;;;;4193990;28;20184;-67
2022/12/09 04:44:15;;;;;;;12.40;5.60;;;-0.90;99.40;;;;;;4196005;28;20179;-66
2022/12/09 04:46:17;;;;;;;11.87;5.83;;;-0.90;99.50;;;;;;4196159;28;20202;-67
2022/12/09 04:48:18;;;;;;;8.93;5.40;;;-0.90;99.00;;;;;;4195090;28;20606;-67
2022/12/09 04:50:18;;;;;;;10.23;5.37;;;-0.90;99.40;;;;;;4195044;28;20965;-67
2022/12/09 04:52:19;;;;;;;11.73;6.17;;;-0.90;99.70;;;;;;4192820;28;20477;-67
2022/12/09 04:54:20;;;;;;;9.60;6.20;;;-0.80;99.10;;;;;;4197494;28;20179;-66
2022/12/09 04:56:21;;;;;;;10.70;6.37;;;-0.80;99.40;;;;;;4197614;28;20183;-67
2022/12/09 04:58:22;;;;;;;9.00;5.73;;;-0.80;98.60;;;;;;4196075;28;20183;-66
2022/12/09 05:00:22;;;;;;;11.27;6.60;;;-0.80;98.80;;;;;;4196311;28;20468;-66
2022/12/09 05:02:24;;;;;;;11.10;6.43;;;-0.80;99.50;;;;;;4195580;28;20187;-66
2022/12/09 05:04:24;;;;;;;11.03;6.00;;;-0.80;99.40;;;;;;4178106;28;20183;-66
2022/12/09 05:06:26;;;;;;;10.80;6.23;;;-0.70;98.40;;;;;;4194490;28;20484;-66
2022/12/09 05:08:26;;;;;;;13.37;6.90;;;-0.80;98.60;;;;;;4194716;28;20172;-67
2022/12/09 05:10:27;;;;;;;8.83;5.97;;;-0.80;99.10;;;;;;4196018;28;20433;-67
2022/12/09 05:12:28;;;;;;;11.93;7.57;;;-0.90;99.90;;;;;;4195169;28;20239;-68
2022/12/09 05:14:28;;;;;;;12.43;7.33;;;-0.90;99.80;;;;;;4195724;28;20828;-67
2022/12/09 05:16:29;;;;;;;14.00;8.07;;;-0.80;99.50;;;;;;4196013;28;20187;-67
2022/12/09 05:18:30;;;;;;;11.50;8.07;;;-0.70;99.20;;;;;;4194725;28;20180;-67
2022/12/09 05:20:30;;;;;;;11.43;7.20;;;-0.60;98.80;;;;;;4195858;28;20255;-67
2022/12/09 05:22:31;;;;;;;14.83;7.90;;;-0.50;98.90;;;;;;4195050;28;20202;-67
2022/12/09 05:24:32;;;;;;;13.80;8.13;;;-0.50;98.30;;;;;;4177841;28;20187;-67
2022/12/09 05:26:33;;;;;;;11.67;7.53;;;-0.60;98.70;;;;;;4195620;28;20640;-66
2022/12/09 05:28:35;;;;;;;11.27;7.10;;;-0.60;99.00;;;;;;4194672;28;20571;-67
2022/12/09 05:30:36;;;;;;;15.03;7.83;;;-0.60;99.40;;;;;;4180348;28;20180;-68
2022/12/09 05:32:37;;;;;;;13.13;7.93;;;-0.50;99.30;;;;;;4186678;28;20480;-67
2022/12/09 05:34:38;;;;;;;14.23;7.73;;;-0.40;98.70;;;;;;4195704;28;20428;-67
2022/12/09 05:36:38;;;;;;;12.53;7.40;;;-0.50;98.90;;;;;;4177499;28;20179;-67
2022/12/09 05:38:40;;;;;;;10.43;6.53;;;-0.50;98.50;;;;;;4195537;28;20211;-67
2022/12/09 05:40:41;;;;;;;10.57;6.50;;;-0.80;99.40;;;;;;4195431;28;20180;-67
2022/12/09 05:42:41;;;;;;;13.23;7.80;;;-0.80;99.30;;;;;;4194563;28;20866;-67
2022/12/09 05:44:42;;;;;;;15.33;7.67;;;-0.70;99.70;;;;;;4195366;28;20199;-67
2022/12/09 05:46:43;;;;;;;13.10;7.77;;;-0.60;99.50;;;;;;4195068;28;20175;-67
2022/12/09 05:48:43;;;;;;;16.97;8.57;;;-0.50;98.90;;;;;;4190872;28;20176;-67
2022/12/09 05:50:44;;;;;;;15.40;8.00;;;-0.40;98.70;;;;;;4178706;28;20245;-67
2022/12/09 05:52:45;;;;;;;12.17;7.40;;;-0.50;98.70;;;;;;4177827;28;20650;-67
2022/12/09 05:54:45;;;;;;;13.13;7.20;;;-0.50;99.20;;;;;;4178508;28;20571;-66
2022/12/09 05:56:46;;;;;;;10.57;6.97;;;-0.50;99.30;;;;;;4178501;28;20551;-68
2022/12/09 05:58:47;;;;;;;15.40;7.13;;;-0.50;98.80;;;;;;4178315;28;20176;-68
2022/12/09 06:00:48;;;;;;;10.80;5.87;;;-0.50;98.90;;;;;;4179197;28;20184;-67
2022/12/09 06:02:49;;;;;;;9.40;5.70;;;-0.50;97.90;;;;;;4177500;28;20258;-68
2022/12/09 06:04:49;;;;;;;9.50;5.80;;;-0.50;97.20;;;;;;4178485;28;20436;-67
2022/12/09 06:06:50;;;;;;;10.97;6.10;;;-0.50;98.10;;;;;;4178368;28;20659;-68
2022/12/09 06:08:56;;;;;;;9.13;5.50;;;-0.40;98.30;;;;;;4178395;28;20199;-68
2022/12/09 06:10:56;;;;;;;10.20;5.70;;;-0.40;98.00;;;;;;4177154;28;20187;-68
2022/12/09 06:12:58;;;;;;;7.37;4.60;;;-0.50;97.30;;;;;;4177739;28;20577;-68
2022/12/09 06:14:59;;;;;;;6.70;5.00;;;-0.60;97.20;;;;;;4178389;28;20975;-68
2022/12/09 06:16:59;;;;;;;8.20;4.80;;;-0.60;96.80;;;;;;4178546;28;20278;-68
2022/12/09 06:19:00;;;;;;;11.10;5.33;;;-0.50;96.60;;;;;;4176900;28;20219;-68
2022/12/09 06:21:10;;;;;;;6.20;4.13;;;-0.50;97.00;;;;;;4187417;28;20302;-68
2022/12/09 06:23:10;;;;;;;8.33;5.03;;;-0.50;97.00;;;;;;4193003;28;20784;-68
2022/12/09 06:25:11;;;;;;;7.33;4.67;;;-0.50;96.70;;;;;;4194791;28;20430;-68
2022/12/09 06:27:12;;;;;;;7.03;4.67;;;-0.40;96.90;;;;;;4195010;28;20577;-68
2022/12/09 06:29:12;;;;;;;8.73;5.10;;;-0.40;96.70;;;;;;4194747;28;20191;-68
2022/12/09 06:31:14;;;;;;;8.17;4.80;;;-0.30;96.30;;;;;;4194667;28;20209;-68
2022/12/09 06:33:14;;;;;;;8.80;5.43;;;-0.30;96.70;;;;;;4193957;28;20728;-68
2022/12/09 06:35:15;;;;;;;9.50;5.07;;;-0.40;96.10;;;;;;4194798;28;20414;-68
2022/12/09 06:37:16;;;;;;;8.30;4.40;;;-0.40;96.30;;;;;;4194700;28;20241;-68
2022/12/09 06:39:17;;;;;;;7.87;4.63;;;-0.50;96.60;;;;;;4194625;28;20183;-68
2022/12/09 06:41:18;;;;;;;8.90;5.27;;;-0.40;95.50;;;;;;4193026;28;20452;-68
2022/12/09 06:43:18;;;;;;;10.63;5.90;;;-0.40;95.80;;;;;;4194062;28;20223;-68
2022/12/09 06:45:20;;;;;;;9.27;5.50;;;-0.40;95.60;;;;;;4193318;28;20190;-68
2022/12/09 06:47:20;;;;;;;9.93;5.97;;;-0.40;95.40;;;;;;4194608;28;20183;-68
2022/12/09 06:49:21;;;;;;;10.80;5.87;;;-0.50;95.70;;;;;;4194606;28;21237;-68
2022/12/09 06:51:23;;;;;;;8.87;4.50;;;-0.50;96.10;;;;;;4194498;28;20598;-67
2022/12/09 06:53:24;;;;;;;7.97;4.77;;;-0.70;97.20;;;;;;4192640;28;20224;-68
2022/12/09 06:55:24;;;;;;;8.53;5.03;;;-0.50;97.10;;;;;;4194653;28;20960;-68
2022/12/09 06:57:25;;;;;;;8.60;5.70;;;-0.40;96.90;;;;;;4196677;28;20199;-68
2022/12/09 06:59:26;;;;;;;7.63;4.60;;;-0.40;96.90;;;;;;4194822;28;20277;-68
2022/12/09 07:01:26;;;;;;;12.43;7.00;;;-0.40;96.80;;;;;;4194728;28;20385;-68
2022/12/09 07:03:27;;;;;;;15.47;8.93;;;-0.50;96.90;;;;;;4194149;28;20252;-68
2022/12/09 07:05:28;;;;;;;15.37;8.57;;;-0.60;97.20;;;;;;4194817;28;20187;-68
2022/12/09 07:07:28;;;;;;;16.13;7.93;;;-0.60;97.20;;;;;;4194728;28;20184;-67
2022/12/09 07:09:29;;;;;;;11.17;5.63;;;-0.60;97.60;;;;;;4193433;28;20199;-68
2022/12/09 07:11:30;;;;;;;8.30;5.27;;;-0.80;97.80;;;;;;4194581;28;20207;-68
2022/12/09 07:13:31;;;;;;;47.93;24.03;;;-0.70;97.80;;;;;;4193965;28;20288;-68
2022/12/09 07:15:31;;;;;;;25.07;12.97;;;-0.60;97.30;;;;;;4195614;28;20180;-68
2022/12/09 07:17:32;;;;;;;13.50;7.83;;;-0.60;97.40;;;;;;4197673;28;20180;-68
2022/12/09 07:19:33;;;;;;;10.37;5.70;;;-0.60;97.80;;;;;;4197555;28;20190;-67
2022/12/09 07:21:33;;;;;;;9.83;5.70;;;-0.70;98.00;;;;;;4195956;28;20192;-68
2022/12/09 07:23:35;;;;;;;8.43;5.63;;;-0.80;98.70;;;;;;4196544;28;20210;-68
2022/12/09 07:25:36;;;;;;;9.00;5.70;;;-0.90;98.70;;;;;;4195805;28;20689;-68
2022/12/09 07:27:37;;;;;;;13.47;6.33;;;-0.90;98.90;;;;;;4195626;28;20422;-68
2022/12/09 07:29:37;;;;;;;9.70;6.00;;;-0.90;99.50;;;;;;4195788;28;20191;-68
2022/12/09 07:31:38;;;;;;;13.43;6.90;;;-0.80;99.20;;;;;;4196013;28;20394;-68
2022/12/09 07:33:39;;;;;;;8.13;5.73;;;-0.80;98.70;;;;;;4196468;28;20222;-68
2022/12/09 07:35:39;;;;;;;10.83;6.70;;;-0.90;98.80;;;;;;4197217;28;20184;-68
2022/12/09 07:37:40;;;;;;;10.77;5.80;;;-0.90;99.30;;;;;;4195951;28;20668;-68
2022/12/09 07:39:40;;;;;;;10.03;6.23;;;-1.00;99.20;;;;;;4197316;28;20588;-68
2022/12/09 07:41:41;;;;;;;12.57;6.83;;;-0.90;99.20;;;;;;4197251;28;20248;-68
2022/12/09 07:43:46;;;;;;;12.40;6.47;;;-0.80;98.80;;;;;;4196710;28;20199;-68
2022/12/09 07:45:48;;;;;;;12.17;7.10;;;-0.60;98.10;;;;;;4195969;28;20225;-68
2022/12/09 07:47:48;;;;;;;14.67;7.03;;;-0.60;97.70;;;;;;4195882;28;20429;-68
2022/12/09 07:49:49;;;;;;;11.43;6.83;;;-0.70;97.50;;;;;;4197178;28;20453;-68
2022/12/09 07:51:50;;;;;;;12.87;7.77;;;-0.70;98.30;;;;;;4197203;28;20223;-68
2022/12/09 07:53:51;;;;;;;15.47;7.67;;;-0.90;98.00;;;;;;4196883;28;20222;-68
2022/12/09 07:55:52;;;;;;;14.03;7.50;;;-1.10;99.10;;;;;;4196211;28;20237;-68
2022/12/09 07:57:52;;;;;;;16.13;7.87;;;-1.00;99.60;;;;;;4194988;28;20426;-68
2022/12/09 07:59:53;;;;;;;14.67;7.87;;;-0.80;99.20;;;;;;4180604;28;20210;-68
2022/12/09 08:01:54;;;;;;;13.30;7.80;;;-0.70;98.80;;;;;;4179340;28;20273;-70
2022/12/09 08:03:55;;;;;;;11.10;6.87;;;-0.60;99.10;;;;;;4179734;28;20960;-68
2022/12/09 08:05:56;;;;;;;13.23;7.53;;;-0.50;98.60;;;;;;4178992;28;20693;-68
2022/12/09 08:07:56;;;;;;;12.50;7.20;;;-0.40;97.90;;;;;;4180284;28;20501;-68
2022/12/09 08:09:57;;;;;;;15.83;9.07;;;-0.50;98.10;;;;;;4180170;28;20185;-68
2022/12/09 08:11:58;;;;;;;16.63;9.70;;;-0.40;98.40;;;;;;4179936;28;20283;-68
2022/12/09 08:14:01;;;;;;;13.73;8.63;;;-0.40;98.00;;;;;;4179422;28;20200;-68
2022/12/09 08:16:05;;;;;;;16.87;9.40;;;-0.80;99.30;;;;;;4178725;28;20647;-68
2022/12/09 08:18:06;;;;;;;15.00;7.97;;;-0.90;99.90;;;;;;4178797;28;20438;-68
2022/12/09 08:20:07;;;;;;;16.77;8.40;;;-0.70;99.90;;;;;;4178666;28;20430;-68
2022/12/09 08:22:08;;;;;;;16.67;8.53;;;-0.50;99.40;;;;;;4179429;28;20184;-68
2022/12/09 08:24:10;;;;;;;13.23;7.63;;;-0.30;98.60;;;;;;4179944;28;20518;-68
2022/12/09 08:26:13;;;;;;;12.73;7.43;;;-0.20;97.50;;;;;;4179796;28;20177;-68
2022/12/09 08:28:14;;;;;;;14.40;7.40;;;-0.10;98.00;;;;;;4178596;28;21047;-68
2022/12/09 08:30:15;;;;;;;14.77;8.17;;;0.00;97.30;;;;;;4179872;28;20433;-68
2022/12/09 08:32:16;;;;;;;16.80;8.33;;;-0.10;97.80;;;;;;4179121;28;20303;-68
2022/12/09 08:34:17;;;;;;;15.30;8.07;;;-0.10;98.40;;;;;;4184703;28;20448;-68
2022/12/09 08:36:25;;;;;;;15.40;7.73;;;0.10;98.40;;;;;;4196317;28;21026;-68
2022/12/09 08:38:25;;;;;;;12.70;7.23;;;0.20;97.90;;;;;;4194834;28;20433;-69
2022/12/09 08:40:26;;;;;;;13.67;7.60;;;0.50;96.50;;;;;;4196203;28;20923;-68
2022/12/09 08:42:29;;;;;;;14.07;8.00;;;0.50;95.60;;;;;;4195508;28;20813;-68
2022/12/09 08:44:29;;;;;;;16.90;8.73;;;0.60;96.20;;;;;;4196213;28;20738;-68
2022/12/09 08:46:32;;;;;;;16.17;8.07;;;0.70;96.70;;;;;;4196946;28;20462;-68
2022/12/09 08:48:38;;;;;;;12.20;7.73;;;0.70;96.40;;;;;;4195114;28;20646;-69
2022/12/09 08:50:38;;;;;;;13.60;7.30;;;0.70;96.50;;;;;;4196109;28;20422;-69
2022/12/09 08:52:39;;;;;;;11.67;7.53;;;0.60;96.60;;;;;;4195345;28;21009;-69
2022/12/09 08:54:40;;;;;;;14.17;8.00;;;0.70;96.50;;;;;;4196791;28;20180;-69
2022/12/09 08:56:48;;;;;;;12.33;7.77;;;0.80;96.00;;;;;;4197019;28;20176;-68
2022/12/09 08:58:48;;;;;;;13.07;7.87;;;0.50;96.80;;;;;;4195251;28;20198;-68
2022/12/09 09:00:49;;;;;;;13.40;7.83;;;0.50;96.70;;;;;;4196608;28;20426;-69
2022/12/09 09:02:50;;;;;;;12.23;7.67;;;0.50;96.90;;;;;;4194025;28;20228;-66
2022/12/09 09:04:50;;;;;;;14.30;9.17;;;0.60;97.30;;;;;;4196041;28;20979;-68
2022/12/09 09:06:52;;;;;;;13.30;7.77;;;0.60;97.50;;;;;;4194733;28;20180;-68
2022/12/09 09:08:54;;;;;;;13.63;7.80;;;0.70;96.90;;;;;;4194520;28;20700;-65
2022/12/09 09:10:55;;;;;;;14.30;7.47;;;0.80;96.70;;;;;;4195603;28;20425;-68
2022/12/09 09:12:56;;;;;;;11.90;7.37;;;0.80;96.00;;;;;;4194937;28;20510;-68
2022/12/09 09:14:57;;;;;;;18.20;10.57;;;0.80;96.10;;;;;;4195817;28;20287;-68
2022/12/09 09:16:58;;;;;;;16.63;10.33;;;0.80;95.80;;;;;;4195875;28;20230;-68
2022/12/09 09:19:00;;;;;;;20.50;10.63;;;0.70;96.90;;;;;;4195854;28;20194;-68
2022/12/09 09:21:01;;;;;;;15.00;7.53;;;0.80;97.30;;;;;;4194388;28;20262;-68
2022/12/09 09:23:02;;;;;;;15.23;8.03;;;0.80;96.90;;;;;;4195093;28;20848;-68
2022/12/09 09:25:03;;;;;;;13.83;8.03;;;0.80;96.60;;;;;;4194495;28;20870;-69
2022/12/09 09:27:03;;;;;;;15.13;8.10;;;0.80;96.20;;;;;;4195656;28;20269;-68
2022/12/09 09:29:04;;;;;;;12.53;7.60;;;0.70;96.80;;;;;;4195504;28;20187;-68
2022/12/09 09:31:07;;;;;;;15.43;8.40;;;0.60;96.80;;;;;;4195647;28;20249;-66
2022/12/09 09:33:08;;;;;;;17.63;9.13;;;0.90;96.30;;;;;;4193479;28;20582;-68
2022/12/09 09:35:09;;;;;;;13.37;8.50;;;1.00;95.40;;;;;;4194246;28;20418;-68
2022/12/09 09:37:10;;;;;;;15.30;8.10;;;1.10;95.10;;;;;;4195648;28;20209;-68
2022/12/09 09:39:11;;;;;;;15.23;8.60;;;1.00;95.20;;;;;;4195034;28;20192;-69
2022/12/09 09:41:49;;;;;;;13.60;8.03;;;1.10;96.10;;;;;;4195697;28;20507;-68
2022/12/09 09:43:50;;;;;;;14.33;8.37;;;1.10;96.10;;;;;;4194840;28;20215;-69
2022/12/09 09:45:53;;;;;;;16.17;8.43;;;1.10;96.00;;;;;;4194115;28;20513;-67
2022/12/09 09:48:01;;;;;;;14.47;8.37;;;1.00;96.00;;;;;;4194088;28;20434;-67
2022/12/09 09:50:25;;;;;;;15.43;8.27;;;1.10;96.00;;;;;;4195311;28;20433;-68
2022/12/09 09:52:28;;;;;;;14.63;8.17;;;1.00;96.00;;;;;;4193381;28;20466;-68
2022/12/09 09:54:31;;;;;;;16.23;9.03;;;1.00;96.30;;;;;;4195533;28;20434;-68
2022/12/09 09:56:52;;;;;;;16.17;9.03;;;1.10;96.20;;;;;;4194048;28;20422;-68
2022/12/09 09:59:28;;;;;;;15.43;8.03;;;0.90;96.40;;;;;;4177530;28;20430;-69
2022/12/09 10:01:33;;;;;;;15.13;8.30;;;1.00;96.20;;;;;;4195205;28;20421;-68
2022/12/09 10:03:34;;;;;;;15.87;8.83;;;1.20;95.70;;;;;;4194581;28;20536;-68
2022/12/09 10:05:50;;;;;;;14.23;8.70;;;1.20;95.90;;;;;;4189006;28;20426;-68
2022/12/09 10:07:56;;;;;;;16.90;8.97;;;1.30;95.90;;;;;;4178715;28;20199;-68
2022/12/09 10:10:27;;;;;;;18.17;9.30;;;1.50;95.30;;;;;;4177166;28;20511;-67
2022/12/09 10:13:19;;;;;;;14.53;8.80;;;1.40;94.70;;;;;;4177794;28;20606;-68
2022/12/09 10:15:28;;;;;;;16.13;8.67;;;1.10;95.50;;;;;;4178133;28;20427;-68
2022/12/09 10:17:51;;;;;;;16.27;9.63;;;1.00;95.70;;;;;;4178543;28;20509;-68
2022/12/09 10:20:04;;;;;;;14.67;8.77;;;0.90;96.20;;;;;;4177237;28;20461;-68
2022/12/09 10:22:16;;;;;;;15.00;8.97;;;0.80;96.60;;;;;;4177168;28;20837;-68
2022/12/09 10:24:33;;;;;;;15.23;8.47;;;0.80;96.70;;;;;;4177247;28;20418;-68
2022/12/09 10:26:33;;;;;;;16.37;8.90;;;0.80;96.80;;;;;;4178442;28;20430;-67
2022/12/09 10:28:41;;;;;;;15.37;9.27;;;0.80;96.50;;;;;;4178452;28;20426;-67
2022/12/09 10:30:42;;;;;;;16.87;9.80;;;0.90;96.80;;;;;;4177155;28;20188;-68
2022/12/09 10:32:42;;;;;;;19.27;9.53;;;1.00;96.30;;;;;;4176377;28;20525;-67
2022/12/09 10:34:44;;;;;;;17.93;10.10;;;1.20;96.30;;;;;;4177133;28;20187;-68
2022/12/09 10:36:46;;;;;;;13.60;9.00;;;1.40;95.90;;;;;;4187005;28;20184;-67
2022/12/09 10:38:47;;;;;;;16.20;8.97;;;1.60;95.20;;;;;;4193649;28;20982;-68
2022/12/09 10:41:08;;;;;;;14.97;9.00;;;1.80;94.70;;;;;;4194827;28;20467;-70
2022/12/09 10:43:34;;;;;;;17.17;9.33;;;1.80;94.40;;;;;;4194528;28;20710;-67